Time;durP1;ratioP1;P1;durP2;ratioP2;P2;SDS_P1;SDS_P2;PMS_P1;PMS_P2;Temp;Humidity;BMP_temperature;BMP_pressure;BME280_temperature;BME280_humidity;BME280_pressure;Samples;Min_cycle;Max_cycle;Signal;HPM_P1;HPM_P2
2021/06/13 00:01:33;;;;;;;6.78;6.03;;;563.50;1996.80;;;;;;5068151;28;20099;-60
2021/06/13 00:03:59;;;;;;;7.38;5.65;;;563.60;1996.80;;;;;;5067327;28;20116;-59
2021/06/13 00:06:24;;;;;;;6.38;5.78;;;563.50;1996.80;;;;;;5072813;28;20032;-59
2021/06/13 00:08:50;;;;;;;7.35;6.00;;;563.50;1996.80;;;;;;5072712;28;20032;-59
2021/06/13 00:11:17;;;;;;;9.02;6.03;;;563.50;2022.40;;;;;;5075188;28;20050;-59
2021/06/13 00:13:43;;;;;;;8.35;6.25;;;563.40;2022.40;;;;;;5074433;28;20024;-59
2021/06/13 00:16:09;;;;;;;7.95;6.30;;;563.40;2022.40;;;;;;5074881;28;20100;-61
2021/06/13 00:18:36;;;;;;;7.38;5.93;;;563.50;2022.40;;;;;;5072105;28;20035;-59
2021/06/13 00:21:03;;;;;;;6.43;5.80;;;563.50;2022.40;;;;;;5073215;28;20063;-62
2021/06/13 00:23:31;;;;;;;7.15;6.10;;;563.50;2022.40;;;;;;5073960;28;20436;-60
2021/06/13 00:25:58;;;;;;;7.63;6.10;;;563.40;2022.40;;;;;;5067310;28;20089;-60
2021/06/13 00:28:23;;;;;;;7.35;5.78;;;563.40;2022.40;;;;;;5072099;28;20024;-59
2021/06/13 00:30:50;;;;;;;7.75;5.78;;;563.50;2022.40;;;;;;5073951;28;20139;-59
2021/06/13 00:33:16;;;;;;;6.43;5.82;;;563.50;1996.80;;;;;;5074566;28;20082;-59
2021/06/13 00:35:41;;;;;;;6.28;5.60;;;563.50;1996.80;;;;;;5074578;28;20025;-59
2021/06/13 00:38:07;;;;;;;8.35;5.63;;;563.50;1996.80;;;;;;5074775;28;20025;-59
2021/06/13 00:40:34;;;;;;;5.90;5.30;;;563.60;1971.20;;;;;;5074268;28;20478;-59
2021/06/13 00:43:00;;;;;;;6.07;5.47;;;563.50;1971.20;;;;;;5072252;28;20027;-60
2021/06/13 00:45:27;;;;;;;6.57;5.45;;;563.60;1971.20;;;;;;5074727;28;20458;-59
2021/06/13 00:47:54;;;;;;;6.57;5.30;;;563.60;1971.20;;;;;;5073223;28;20036;-59
2021/06/13 00:50:34;;;;;;;8.15;5.30;;;563.70;1971.20;;;;;;5074031;28;20052;-59
2021/06/13 00:53:05;;;;;;;7.43;5.45;;;563.70;1971.20;;;;;;5069891;28;20127;-60
2021/06/13 00:55:32;;;;;;;6.80;5.63;;;563.70;1971.20;;;;;;5073528;28;20039;-60
2021/06/13 00:57:58;;;;;;;6.45;5.35;;;563.70;1971.20;;;;;;5073795;28;20033;-59
2021/06/13 01:00:25;;;;;;;7.22;5.72;;;563.70;1971.20;;;;;;5072723;28;20037;-59
2021/06/13 01:02:51;;;;;;;6.63;5.93;;;563.80;1971.20;;;;;;5068043;28;20051;-60
2021/06/13 01:05:18;;;;;;;7.82;5.47;;;563.80;1971.20;;;;;;5068701;28;20440;-60
2021/06/13 01:08:23;;;;;;;6.38;5.68;;;563.90;1971.20;;;;;;5071068;28;20035;-59
2021/06/13 01:11:25;;;;;;;7.43;5.60;;;564.00;1971.20;;;;;;5030249;28;20566;-60
2021/06/13 01:14:03;;;;;;;6.95;5.65;;;563.90;1996.80;;;;;;5031012;28;20061;-60
2021/06/13 01:16:50;;;;;;;8.32;5.80;;;563.90;1996.80;;;;;;5030437;28;20034;-60
2021/06/13 01:19:28;;;;;;;8.70;6.38;;;563.90;2022.40;;;;;;5031150;28;20301;-59
2021/06/13 01:22:18;;;;;;;8.07;5.95;;;563.70;2048.00;;;;;;5030466;28;20171;-59
2021/06/13 01:25:06;;;;;;;5.68;5.07;;;563.70;2048.00;;;;;;5031093;28;20116;-60
2021/06/13 01:27:53;;;;;;;9.82;6.25;;;563.70;2022.40;;;;;;5031071;28;20037;-60
2021/06/13 01:30:19;;;;;;;9.00;5.72;;;563.70;2150.40;;;;;;5028724;28;20053;-60
2021/06/13 01:32:46;;;;;;;9.63;5.40;;;563.50;2150.40;;;;;;5023955;28;20036;-60
2021/06/13 01:35:19;;;;;;;8.05;5.32;;;563.50;2124.80;;;;;;5030909;28;20033;-60
2021/06/13 01:37:52;;;;;;;5.88;5.15;;;563.40;2176.00;;;;;;5028710;28;20036;-59
2021/06/13 01:40:21;;;;;;;5.63;4.80;;;563.30;2201.60;;;;;;5031240;28;20514;-59
2021/06/13 01:42:52;;;;;;;6.05;5.15;;;563.30;2201.60;;;;;;5028538;28;20033;-59
2021/06/13 01:45:22;;;;;;;8.70;5.20;;;563.20;2201.60;;;;;;5025568;28;20025;-59
2021/06/13 01:47:50;;;;;;;6.50;5.30;;;563.20;2227.20;;;;;;5054771;28;20465;-59
2021/06/13 01:50:16;;;;;;;6.25;5.07;;;563.20;2252.80;;;;;;5072868;28;20017;-60
2021/06/13 01:52:43;;;;;;;5.90;5.30;;;563.20;2252.80;;;;;;5066471;28;20025;-60
2021/06/13 01:55:10;;;;;;;6.90;4.97;;;563.20;2252.80;;;;;;5069745;28;20020;-60
2021/06/13 01:57:41;;;;;;;9.85;4.95;;;538.50;2227.20;;;;;;5072014;28;20119;-60
2021/06/13 02:00:12;;;;;;;5.70;4.85;;;538.50;2227.20;;;;;;5066671;28;20056;-60
2021/06/13 02:02:39;;;;;;;5.82;4.85;;;538.40;2252.80;;;;;;5065982;28;20044;-59
2021/06/13 02:05:06;;;;;;;5.53;4.90;;;538.40;2252.80;;;;;;5074002;28;20029;-59
2021/06/13 02:07:37;;;;;;;5.43;4.90;;;538.30;2252.80;;;;;;5073450;28;20041;-59
2021/06/13 02:10:06;;;;;;;6.68;4.95;;;538.30;2278.40;;;;;;5073922;28;20025;-59
2021/06/13 02:12:37;;;;;;;5.68;5.00;;;538.20;2304.00;;;;;;5074079;28;20095;-59
2021/06/13 02:15:04;;;;;;;5.60;5.00;;;538.20;2329.60;;;;;;5073802;28;20020;-59
2021/06/13 02:17:33;;;;;;;7.03;5.05;;;538.00;2329.60;;;;;;5073690;28;20474;-60
2021/06/13 02:19:59;;;;;;;5.88;5.28;;;538.00;2355.20;;;;;;5073646;28;20032;-58
2021/06/13 02:22:26;;;;;;;6.88;5.40;;;537.90;2380.80;;;;;;5073534;28;20111;-59
2021/06/13 02:24:51;;;;;;;8.85;5.43;;;537.80;2406.40;;;;;;5074143;28;20047;-55
2021/06/13 02:27:23;;;;;;;6.63;5.93;;;537.70;2406.40;;;;;;5073616;28;20486;-56
2021/06/13 02:29:48;;;;;;;7.93;5.50;;;537.60;2406.40;;;;;;5073812;28;20035;-55
2021/06/13 02:32:15;;;;;;;6.47;5.45;;;512.90;2380.80;;;;;;5073319;28;20033;-55
2021/06/13 02:34:45;;;;;;;7.63;5.70;;;512.80;2380.80;;;;;;5073678;28;20020;-55
2021/06/13 02:37:12;;;;;;;7.63;5.57;;;512.80;2380.80;;;;;;5073724;28;20093;-56
2021/06/13 02:39:38;;;;;;;6.60;5.90;;;512.80;2380.80;;;;;;5073653;28;20059;-56
2021/06/13 02:42:04;;;;;;;7.90;6.10;;;512.80;2380.80;;;;;;5073530;28;20060;-56
2021/06/13 02:44:30;;;;;;;6.68;5.97;;;512.70;2380.80;;;;;;5073518;28;20025;-56
2021/06/13 02:46:55;;;;;;;6.97;5.82;;;512.80;2380.80;;;;;;5073515;28;20035;-56
2021/06/13 02:49:21;;;;;;;7.35;6.43;;;512.70;2380.80;;;;;;5073727;28;20052;-55
2021/06/13 02:52:34;;;;;;;7.60;6.50;;;512.70;2380.80;;;;;;5072457;28;20039;-56
2021/06/13 02:55:01;;;;;;;7.70;6.53;;;512.70;2380.80;;;;;;5051656;28;20017;-55
2021/06/13 02:57:41;;;;;;;8.27;7.00;;;512.70;2380.80;;;;;;5051335;28;20598;-56
2021/06/13 03:00:09;;;;;;;7.20;6.50;;;512.70;2380.80;;;;;;5051238;28;20025;-56
2021/06/13 03:02:38;;;;;;;9.00;7.65;;;512.60;2380.80;;;;;;5051118;28;20449;-56
2021/06/13 03:05:07;;;;;;;10.32;7.43;;;512.70;2380.80;;;;;;5051259;28;20438;-56
2021/06/13 03:07:33;;;;;;;8.63;6.95;;;512.60;2380.80;;;;;;5051216;28;20040;-56
2021/06/13 03:10:03;;;;;;;7.93;6.88;;;512.60;2380.80;;;;;;5050968;28;20479;-55
2021/06/13 03:12:29;;;;;;;9.88;6.93;;;512.60;2380.80;;;;;;5034462;28;20029;-56
2021/06/13 03:14:57;;;;;;;8.10;7.30;;;512.60;2380.80;;;;;;5051000;28;20018;-56
2021/06/13 03:17:24;;;;;;;8.55;7.65;;;512.40;2380.80;;;;;;5050905;28;20098;-56
2021/06/13 03:19:51;;;;;;;9.50;7.50;;;512.50;2380.80;;;;;;5053481;28;20021;-56
2021/06/13 03:22:17;;;;;;;8.85;7.63;;;512.60;2380.80;;;;;;5055203;28;20099;-56
2021/06/13 03:24:47;;;;;;;9.60;7.55;;;512.60;2380.80;;;;;;5055589;28;20094;-55
2021/06/13 03:27:13;;;;;;;10.35;7.97;;;512.60;2380.80;;;;;;5054781;28;20036;-56
2021/06/13 03:29:42;;;;;;;8.75;7.63;;;512.50;2380.80;;;;;;5074038;28;20466;-56
2021/06/13 03:32:10;;;;;;;8.88;7.05;;;512.60;2380.80;;;;;;5077059;28;20115;-57
2021/06/13 03:34:38;;;;;;;9.40;7.45;;;512.60;2380.80;;;;;;5077352;28;20029;-56
2021/06/13 03:37:06;;;;;;;10.52;7.35;;;512.60;2380.80;;;;;;5077240;28;20308;-57
2021/06/13 03:39:33;;;;;;;13.30;7.25;;;512.50;2380.80;;;;;;5075847;28;20039;-57
2021/06/13 03:42:00;;;;;;;8.30;7.45;;;512.60;2380.80;;;;;;5076301;28;20044;-56
2021/06/13 03:44:26;;;;;;;10.65;7.55;;;512.60;2380.80;;;;;;5075811;28;20104;-59
2021/06/13 03:46:54;;;;;;;8.30;7.40;;;512.60;2380.80;;;;;;5076828;28;20039;-58
2021/06/13 03:49:21;;;;;;;8.77;7.35;;;512.60;2380.80;;;;;;5077022;28;20020;-56
2021/06/13 03:51:47;;;;;;;9.27;6.88;;;512.60;2380.80;;;;;;5076650;28;20032;-57
2021/06/13 03:54:13;;;;;;;10.10;7.85;;;512.60;2380.80;;;;;;5076730;28;20382;-56
2021/06/13 03:56:51;;;;;;;9.57;7.32;;;512.60;2380.80;;;;;;5075415;28;20036;-56
2021/06/13 03:59:19;;;;;;;10.80;7.55;;;512.70;2380.80;;;;;;5076769;28;20079;-56
2021/06/13 04:01:46;;;;;;;9.43;7.38;;;512.60;2380.80;;;;;;5076079;28;20111;-56
2021/06/13 04:04:15;;;;;;;9.48;7.45;;;512.60;2380.80;;;;;;5074841;28;20390;-56
2021/06/13 04:06:44;;;;;;;9.38;7.20;;;512.70;2380.80;;;;;;5076203;28;20071;-56
2021/06/13 04:09:11;;;;;;;11.07;7.20;;;512.60;2380.80;;;;;;5076538;28;20032;-57
2021/06/13 04:11:39;;;;;;;9.75;7.40;;;512.60;2380.80;;;;;;5076260;28;20025;-56
2021/06/13 04:14:06;;;;;;;9.75;7.57;;;512.60;2380.80;;;;;;5076241;28;20107;-55
2021/06/13 04:16:32;;;;;;;9.45;7.90;;;512.50;2380.80;;;;;;5076643;28;20085;-57
2021/06/13 04:18:57;;;;;;;9.15;7.68;;;512.40;2380.80;;;;;;5075680;28;20029;-56
2021/06/13 04:21:24;;;;;;;10.02;7.65;;;512.40;2380.80;;;;;;5076050;28;20363;-56
2021/06/13 04:23:51;;;;;;;9.38;8.02;;;512.40;2380.80;;;;;;5075921;28;20032;-56
2021/06/13 04:26:18;;;;;;;9.82;7.90;;;512.50;2380.80;;;;;;5075612;28;20056;-56
2021/06/13 04:28:45;;;;;;;10.63;8.07;;;512.60;2380.80;;;;;;5075900;28;20456;-56
2021/06/13 04:31:15;;;;;;;10.15;8.27;;;512.50;2380.80;;;;;;5075476;28;20028;-56
2021/06/13 04:33:46;;;;;;;11.30;8.93;;;512.60;2380.80;;;;;;5076151;28;20029;-55
2021/06/13 04:36:13;;;;;;;10.57;8.52;;;512.40;2380.80;;;;;;5075870;28;20453;-56
2021/06/13 04:38:39;;;;;;;9.43;7.53;;;512.40;2380.80;;;;;;5075544;28;20056;-55
2021/06/13 04:41:07;;;;;;;11.27;7.70;;;512.30;2380.80;;;;;;5074741;28;20064;-56
2021/06/13 04:43:35;;;;;;;9.15;6.95;;;512.30;2380.80;;;;;;5075761;28;20103;-56
2021/06/13 04:46:02;;;;;;;7.45;5.78;;;512.30;2380.80;;;;;;5075666;28;20029;-56
2021/06/13 04:48:28;;;;;;;7.72;6.00;;;512.30;2380.80;;;;;;5075669;28;20111;-56
2021/06/13 04:50:54;;;;;;;7.18;6.20;;;512.50;2380.80;;;;;;5075659;28;20028;-56
2021/06/13 04:53:51;;;;;;;7.53;5.10;;;512.50;2380.80;;;;;;5075743;28;20108;-56
2021/06/13 04:56:37;;;;;;;8.45;5.07;;;512.50;2380.80;;;;;;5075516;28;20044;-56
2021/06/13 04:59:03;;;;;;;8.23;4.90;;;512.40;2355.20;;;;;;5075639;28;20028;-56
2021/06/13 05:01:29;;;;;;;6.47;4.80;;;512.50;2329.60;;;;;;5075681;28;20024;-56
2021/06/13 05:03:56;;;;;;;5.40;4.68;;;512.50;2329.60;;;;;;5075516;28;20044;-56
2021/06/13 05:06:22;;;;;;;7.70;4.78;;;512.50;2329.60;;;;;;5075160;28;20028;-56
2021/06/13 05:08:48;;;;;;;7.03;4.85;;;512.60;2329.60;;;;;;5075472;28;20075;-56
2021/06/13 05:11:14;;;;;;;4.35;3.92;;;512.50;2304.00;;;;;;5075550;28;20486;-56
2021/06/13 05:13:40;;;;;;;5.32;4.45;;;512.50;2252.80;;;;;;5075092;28;20021;-56
2021/06/13 05:16:06;;;;;;;5.90;4.25;;;512.50;2278.40;;;;;;5075126;28;20099;-56
2021/06/13 05:18:32;;;;;;;5.65;3.95;;;512.40;2278.40;;;;;;5074013;28;20426;-56
2021/06/13 05:20:58;;;;;;;5.72;4.18;;;512.40;2227.20;;;;;;5075221;28;20482;-55
2021/06/13 05:23:24;;;;;;;5.65;3.80;;;512.60;2252.80;;;;;;5075270;28;20055;-56
2021/06/13 05:25:52;;;;;;;6.35;3.90;;;512.70;2227.20;;;;;;5075233;28;20026;-56
2021/06/13 05:28:19;;;;;;;4.95;3.42;;;512.80;2176.00;;;;;;5074768;28;20075;-56
2021/06/13 05:30:44;;;;;;;6.30;4.20;;;512.90;2150.40;;;;;;5075144;28;20037;-56
2021/06/13 05:33:11;;;;;;;5.95;3.60;;;512.90;2124.80;;;;;;5074847;28;20025;-56
2021/06/13 05:35:38;;;;;;;6.45;3.80;;;512.90;2124.80;;;;;;5073704;28;20063;-57
2021/06/13 05:38:04;;;;;;;5.50;3.42;;;537.60;2150.40;;;;;;5074676;28;20443;-57
2021/06/13 05:40:31;;;;;;;4.50;3.30;;;537.60;2150.40;;;;;;5074692;28;20021;-57
2021/06/13 05:42:57;;;;;;;5.35;3.40;;;537.60;2150.40;;;;;;5074657;28;20024;-56
2021/06/13 05:45:25;;;;;;;4.30;3.17;;;537.70;2150.40;;;;;;5074616;28;20032;-59
2021/06/13 05:47:51;;;;;;;5.88;3.40;;;537.70;2099.20;;;;;;5074672;28;20039;-57
2021/06/13 05:50:18;;;;;;;5.50;3.03;;;537.80;2073.60;;;;;;5074611;28;20029;-56
2021/06/13 05:52:46;;;;;;;4.85;3.40;;;537.90;2099.20;;;;;;5073972;28;20028;-57
2021/06/13 05:55:13;;;;;;;5.03;3.00;;;537.90;2099.20;;;;;;5074422;28;20033;-57
2021/06/13 05:57:39;;;;;;;6.90;3.67;;;537.90;2099.20;;;;;;5074365;28;20497;-56
2021/06/13 06:00:11;;;;;;;4.65;3.28;;;537.90;2073.60;;;;;;5074311;28;20032;-56
2021/06/13 06:02:37;;;;;;;4.82;3.55;;;537.90;2073.60;;;;;;5074341;28;20070;-57
2021/06/13 06:05:04;;;;;;;8.80;3.50;;;537.90;2099.20;;;;;;5074255;28;20028;-56
2021/06/13 06:07:30;;;;;;;6.07;3.40;;;537.90;2073.60;;;;;;5073718;28;20029;-56
2021/06/13 06:09:56;;;;;;;4.40;3.20;;;538.20;2073.60;;;;;;5074097;28;20029;-56
2021/06/13 06:12:22;;;;;;;5.60;3.20;;;538.30;2048.00;;;;;;5074243;28;20120;-56
2021/06/13 06:14:48;;;;;;;6.00;3.05;;;538.30;2048.00;;;;;;5074063;28;20096;-56
2021/06/13 06:17:14;;;;;;;4.72;3.33;;;538.40;2022.40;;;;;;5073792;28;20025;-56
2021/06/13 06:19:40;;;;;;;5.57;3.20;;;538.50;2048.00;;;;;;5073923;28;20363;-55
2021/06/13 06:22:06;;;;;;;5.13;2.92;;;563.30;2022.40;;;;;;5074011;28;20466;-56
2021/06/13 06:24:33;;;;;;;5.43;3.00;;;563.50;1996.80;;;;;;5073548;28;20033;-56
2021/06/13 06:26:59;;;;;;;4.53;3.05;;;563.50;1996.80;;;;;;5074039;28;20047;-57
2021/06/13 06:29:25;;;;;;;4.57;2.80;;;563.70;1971.20;;;;;;5074022;28;20478;-57
2021/06/13 06:31:51;;;;;;;6.38;3.20;;;563.90;1996.80;;;;;;5073806;28;20470;-60
2021/06/13 06:34:17;;;;;;;5.13;2.38;;;563.80;1894.40;;;;;;5073780;28;20025;-57
2021/06/13 06:36:44;;;;;;;5.35;2.55;;;563.90;1894.40;;;;;;5073881;28;20031;-57
2021/06/13 06:39:10;;;;;;;6.60;2.85;;;564.00;1894.40;;;;;;5074094;28;20028;-56
2021/06/13 06:41:37;;;;;;;5.00;2.72;;;563.90;1817.60;;;;;;5073688;28;20458;-56
2021/06/13 06:44:07;;;;;;;6.57;2.80;;;563.90;1868.80;;;;;;5073762;28;20374;-57
2021/06/13 06:46:34;;;;;;;4.15;2.80;;;563.90;1894.40;;;;;;5073744;28;20029;-57
2021/06/13 06:49:00;;;;;;;5.78;2.90;;;563.90;1868.80;;;;;;5073798;28;20016;-58
2021/06/13 06:51:27;;;;;;;4.03;2.53;;;564.10;1894.40;;;;;;5073303;28;20067;-60
2021/06/13 06:53:57;;;;;;;4.15;2.40;;;588.90;1792.00;;;;;;5072881;28;20403;-56
2021/06/13 06:56:27;;;;;;;12.82;2.42;;;589.00;1792.00;;;;;;5073464;28;20055;-56
2021/06/13 06:58:53;;;;;;;3.40;2.42;;;588.90;1740.80;;;;;;5073563;28;20103;-58
2021/06/13 07:01:19;;;;;;;3.72;2.20;;;589.00;1766.40;;;;;;5073088;28;20028;-57
2021/06/13 07:03:45;;;;;;;3.67;2.28;;;589.00;1740.80;;;;;;5073343;28;20028;-62
2021/06/13 07:06:11;;;;;;;3.58;2.20;;;588.80;1766.40;;;;;;5073247;28;20036;-60
2021/06/13 07:08:36;;;;;;;5.47;2.72;;;564.10;1792.00;;;;;;5073739;28;20509;-61
2021/06/13 07:11:02;;;;;;;4.68;2.50;;;564.10;1817.60;;;;;;5073451;28;20025;-60
2021/06/13 07:13:28;;;;;;;4.35;2.40;;;564.10;1740.80;;;;;;5073473;28;20033;-62
2021/06/13 07:15:54;;;;;;;5.50;2.25;;;588.80;1792.00;;;;;;5073039;28;20024;-58
2021/06/13 07:18:20;;;;;;;5.43;2.50;;;588.80;1766.40;;;;;;5073591;28;20020;-56
2021/06/13 07:20:46;;;;;;;4.07;2.03;;;588.80;1715.20;;;;;;5072845;28;20053;-58
2021/06/13 07:23:12;;;;;;;5.45;2.30;;;564.10;1689.60;;;;;;5073497;28;20025;-62
2021/06/13 07:25:38;;;;;;;6.60;2.55;;;564.10;1689.60;;;;;;5073234;28;20029;-57
2021/06/13 07:28:05;;;;;;;3.55;2.10;;;564.10;1715.20;;;;;;5073144;28;20036;-60
2021/06/13 07:30:32;;;;;;;6.13;2.17;;;588.80;1638.40;;;;;;5073332;28;20067;-59
2021/06/13 07:32:58;;;;;;;4.03;2.20;;;564.10;1638.40;;;;;;5073233;28;20028;-57
2021/06/13 07:35:24;;;;;;;4.95;2.20;;;564.10;1638.40;;;;;;5073131;28;20537;-58
2021/06/13 07:37:50;;;;;;;3.78;2.15;;;588.80;1638.40;;;;;;5073475;28;20478;-59
2021/06/13 07:40:18;;;;;;;4.07;2.10;;;564.10;1638.40;;;;;;5073048;28;20023;-57
2021/06/13 07:42:44;;;;;;;6.00;2.40;;;564.10;1612.80;;;;;;5072969;28;20028;-60
2021/06/13 07:45:11;;;;;;;5.43;2.33;;;589.00;1561.60;;;;;;5073275;28;20100;-60
2021/06/13 07:47:38;;;;;;;4.85;2.40;;;589.10;1536.00;;;;;;5072974;28;20075;-58
2021/06/13 07:50:06;;;;;;;3.75;2.00;;;589.20;1536.00;;;;;;5073195;28;20025;-58
2021/06/13 07:52:32;;;;;;;6.53;2.10;;;589.30;1587.20;;;;;;5072910;28;20029;-62
2021/06/13 07:54:58;;;;;;;7.20;2.40;;;589.40;1561.60;;;;;;5072989;28;20021;-61
2021/06/13 07:57:24;;;;;;;3.95;2.05;;;589.60;1536.00;;;;;;5072563;28;20070;-61
2021/06/13 07:59:49;;;;;;;5.18;2.08;;;614.40;1561.60;;;;;;5073152;28;20021;-56
2021/06/13 08:02:15;;;;;;;3.70;1.90;;;614.40;1536.00;;;;;;5072896;28;20411;-56
2021/06/13 08:04:52;;;;;;;5.18;2.22;;;614.60;1484.80;;;;;;5072821;28;20365;-56
2021/06/13 08:07:18;;;;;;;5.07;2.10;;;614.50;1510.40;;;;;;5075541;28;20040;-55
2021/06/13 08:09:43;;;;;;;4.07;2.22;;;614.60;1510.40;;;;;;5076582;28;20024;-60
2021/06/13 08:12:11;;;;;;;5.95;2.10;;;614.70;1459.20;;;;;;5076354;28;20059;-61
2021/06/13 08:14:37;;;;;;;4.55;2.40;;;614.80;1433.60;;;;;;5076527;28;20031;-61
2021/06/13 08:17:03;;;;;;;5.97;1.88;;;615.00;1433.60;;;;;;5076316;28;20492;-59
2021/06/13 08:19:29;;;;;;;4.63;2.10;;;615.10;1382.40;;;;;;5076235;28;20024;-59
2021/06/13 08:21:54;;;;;;;4.88;2.00;;;615.30;1433.60;;;;;;5076099;28;20070;-58
2021/06/13 08:24:20;;;;;;;3.75;2.00;;;615.30;1382.40;;;;;;5076494;28;20024;-58
2021/06/13 08:26:46;;;;;;;13.18;2.20;;;615.30;1331.20;;;;;;5076220;28;20056;-59
2021/06/13 08:29:12;;;;;;;4.20;2.10;;;640.10;1408.00;;;;;;5074934;28;20032;-61
2021/06/13 08:31:38;;;;;;;12.70;2.10;;;640.10;1331.20;;;;;;5075729;28;20489;-59
2021/06/13 08:34:04;;;;;;;5.32;1.90;;;640.10;1280.00;;;;;;5076469;28;20107;-61
2021/06/13 08:36:30;;;;;;;7.30;1.92;;;640.10;1280.00;;;;;;5075970;28;20533;-58
2021/06/13 08:38:57;;;;;;;5.43;1.92;;;640.00;1280.00;;;;;;5075937;28;20474;-58
2021/06/13 08:41:23;;;;;;;3.53;1.92;;;640.00;1280.00;;;;;;5076232;28;20028;-61
2021/06/13 08:43:50;;;;;;;5.03;2.10;;;640.10;1280.00;;;;;;5075941;28;20024;-61
2021/06/13 08:46:16;;;;;;;7.22;2.08;;;640.20;1280.00;;;;;;5075592;28;20104;-62
2021/06/13 08:48:45;;;;;;;5.65;2.28;;;640.30;1254.40;;;;;;5075635;28;20032;-58
2021/06/13 08:51:11;;;;;;;4.25;1.80;;;640.40;1305.60;;;;;;5074336;28;20029;-57
2021/06/13 08:53:43;;;;;;;7.30;2.25;;;640.60;1280.00;;;;;;5075828;28;20024;-58
2021/06/13 08:56:10;;;;;;;5.38;2.15;;;640.80;1228.80;;;;;;5075651;28;20052;-57
2021/06/13 08:58:36;;;;;;;5.75;2.22;;;665.80;1254.40;;;;;;5075360;28;20470;-57
2021/06/13 09:01:03;;;;;;;3.88;2.00;;;665.90;1254.40;;;;;;5075519;28;20086;-57
2021/06/13 09:03:29;;;;;;;6.80;2.20;;;665.80;1254.40;;;;;;5075417;28;20020;-57
2021/06/13 09:05:55;;;;;;;8.68;2.30;;;665.80;1203.20;;;;;;5074939;28;20035;-57
2021/06/13 09:08:20;;;;;;;5.45;2.17;;;665.90;1228.80;;;;;;5074409;28;20040;-58
2021/06/13 09:10:47;;;;;;;3.85;2.00;;;666.10;1203.20;;;;;;5075368;28;20021;-57
2021/06/13 09:13:24;;;;;;;6.00;1.90;;;666.00;1177.60;;;;;;5075328;28;20032;-57
2021/06/13 09:15:50;;;;;;;5.45;1.90;;;666.20;1254.40;;;;;;5075317;28;20382;-57
2021/06/13 09:18:31;;;;;;;5.30;2.20;;;666.00;1177.60;;;;;;5075112;28;20021;-56
2021/06/13 09:20:58;;;;;;;3.95;1.90;;;666.20;1152.00;;;;;;5075531;28;20043;-57
2021/06/13 09:23:26;;;;;;;4.45;2.00;;;666.40;1177.60;;;;;;5075210;28;20385;-57
2021/06/13 09:26:25;;;;;;;5.95;1.80;;;666.50;1126.40;;;;;;5074901;28;20028;-56
2021/06/13 09:28:53;;;;;;;3.30;2.00;;;691.30;1126.40;;;;;;5032826;28;20037;-57
2021/06/13 09:31:26;;;;;;;4.22;1.90;;;691.30;1152.00;;;;;;5032872;28;20030;-59
2021/06/13 09:33:59;;;;;;;2.97;1.80;;;691.20;1075.20;;;;;;5032851;28;20033;-56
2021/06/13 09:36:30;;;;;;;4.80;1.83;;;691.30;1100.80;;;;;;5032859;28;20033;-57
2021/06/13 09:39:04;;;;;;;3.05;1.80;;;691.40;1100.80;;;;;;5032737;28;20065;-56
2021/06/13 09:41:31;;;;;;;4.93;2.03;;;691.40;1075.20;;;;;;5032672;28;20108;-58
2021/06/13 09:44:03;;;;;;;3.70;1.70;;;691.60;1024.00;;;;;;5032831;28;20064;-57
2021/06/13 09:46:32;;;;;;;6.38;2.30;;;691.60;998.40;;;;;;5032463;28;20029;-56
2021/06/13 09:49:09;;;;;;;5.70;1.80;;;691.50;1024.00;;;;;;5032796;28;20494;-56
2021/06/13 09:51:50;;;;;;;4.43;1.55;;;691.50;1049.60;;;;;;5032495;28;20398;-58
2021/06/13 09:54:27;;;;;;;3.22;1.50;;;691.60;1049.60;;;;;;5032519;28;20038;-56
2021/06/13 09:56:56;;;;;;;4.00;1.33;;;691.50;972.80;;;;;;5032193;28;20156;-56
2021/06/13 09:59:32;;;;;;;3.90;1.60;;;691.50;947.20;;;;;;5032161;28;20033;-56
2021/06/13 10:01:59;;;;;;;3.75;1.60;;;691.30;921.60;;;;;;5032347;28;20041;-56
2021/06/13 10:04:31;;;;;;;4.53;1.70;;;691.20;921.60;;;;;;5040518;28;20028;-56
2021/06/13 10:06:58;;;;;;;3.67;1.52;;;666.50;947.20;;;;;;5073995;28;20162;-57
2021/06/13 10:09:39;;;;;;;10.20;1.65;;;691.20;921.60;;;;;;5074153;28;20031;-56
2021/06/13 10:12:08;;;;;;;3.28;1.40;;;691.30;921.60;;;;;;5074024;28;20025;-56
2021/06/13 10:14:34;;;;;;;6.03;1.70;;;691.30;947.20;;;;;;5074167;28;20024;-55
2021/06/13 10:16:59;;;;;;;7.43;1.60;;;691.50;921.60;;;;;;5073922;28;20103;-56
2021/06/13 10:19:26;;;;;;;4.43;1.40;;;691.60;896.00;;;;;;5073908;28;20033;-56
2021/06/13 10:21:53;;;;;;;5.55;1.38;;;691.70;921.60;;;;;;5074262;28;20052;-57
2021/06/13 10:24:39;;;;;;;4.70;1.63;;;691.60;896.00;;;;;;5074084;28;20017;-56
2021/06/13 10:27:07;;;;;;;5.13;1.60;;;691.50;870.40;;;;;;5073947;28;20025;-56
2021/06/13 10:29:39;;;;;;;3.88;1.30;;;691.70;870.40;;;;;;5073186;28;20032;-56
2021/06/13 10:32:07;;;;;;;2.90;1.30;;;691.90;896.00;;;;;;5073981;28;20025;-56
2021/06/13 10:34:33;;;;;;;5.32;1.55;;;692.10;870.40;;;;;;5073796;28;20078;-57
2021/06/13 10:37:03;;;;;;;6.10;1.70;;;716.80;896.00;;;;;;5073905;28;20027;-57
2021/06/13 10:39:32;;;;;;;2.03;1.30;;;716.80;896.00;;;;;;5072979;28;20052;-56
2021/06/13 10:41:59;;;;;;;4.30;1.63;;;716.90;921.60;;;;;;5073786;28;20029;-58
2021/06/13 10:44:30;;;;;;;5.38;1.70;;;717.00;921.60;;;;;;5073420;28;20043;-57
2021/06/13 10:47:07;;;;;;;4.63;1.50;;;717.10;896.00;;;;;;5073422;28;20036;-60
2021/06/13 10:49:35;;;;;;;4.05;1.60;;;717.10;870.40;;;;;;5073733;28;20052;-56
2021/06/13 10:52:10;;;;;;;5.22;1.48;;;717.20;896.00;;;;;;5072285;28;20020;-57
2021/06/13 10:54:37;;;;;;;3.55;1.40;;;717.20;870.40;;;;;;5073394;28;20028;-56
2021/06/13 10:57:03;;;;;;;5.35;1.90;;;717.40;921.60;;;;;;5073223;28;20051;-57
2021/06/13 10:59:34;;;;;;;4.85;1.25;;;717.50;844.80;;;;;;5072313;28;20128;-57
2021/06/13 11:02:11;;;;;;;3.40;1.40;;;717.00;844.80;;;;;;5073707;28;20042;-56
2021/06/13 11:04:58;;;;;;;4.72;1.40;;;717.10;844.80;;;;;;5073449;28;20032;-57
2021/06/13 11:07:30;;;;;;;3.83;1.40;;;717.10;870.40;;;;;;5073444;28;20051;-57
2021/06/13 11:10:06;;;;;;;5.35;1.38;;;717.00;819.20;;;;;;5072209;28;20085;-60
2021/06/13 11:12:49;;;;;;;5.10;1.60;;;716.90;844.80;;;;;;5073690;28;20351;-59
2021/06/13 11:15:22;;;;;;;3.63;1.70;;;717.00;870.40;;;;;;5073274;28;20032;-60
2021/06/13 11:17:51;;;;;;;4.00;1.70;;;717.10;870.40;;;;;;5073313;28;20439;-60
2021/06/13 11:23:27;;;;;;;4.80;1.60;;;717.20;819.20;;;;;;5073453;28;20146;-60
2021/06/13 11:25:57;;;;;;;4.47;1.40;;;717.00;870.40;;;;;;5031272;28;20494;-60
2021/06/13 11:28:24;;;;;;;4.85;1.67;;;716.90;844.80;;;;;;5014437;28;20044;-60
2021/06/13 11:30:51;;;;;;;4.68;1.40;;;717.00;896.00;;;;;;5031078;28;20084;-60
2021/06/13 11:33:35;;;;;;;3.95;1.58;;;717.10;870.40;;;;;;5031224;28;20032;-61
2021/06/13 11:36:20;;;;;;;8.80;2.45;;;717.00;896.00;;;;;;5031279;28;20617;-61
2021/06/13 11:39:13;;;;;;;5.20;1.50;;;717.00;896.00;;;;;;5031218;28;20044;-61
2021/06/13 11:41:42;;;;;;;6.63;1.30;;;716.90;844.80;;;;;;5034659;28;20542;-61
2021/06/13 11:44:21;;;;;;;3.45;1.50;;;716.80;844.80;;;;;;5034864;28;20037;-60
2021/06/13 11:46:53;;;;;;;3.17;1.60;;;716.80;870.40;;;;;;5034896;28;20124;-61
2021/06/13 11:49:46;;;;;;;3.10;1.60;;;716.90;870.40;;;;;;5018214;28;20445;-61
2021/06/13 11:52:12;;;;;;;3.88;1.40;;;716.90;844.80;;;;;;5034811;28;20026;-60
2021/06/13 11:54:44;;;;;;;2.85;1.50;;;717.00;870.40;;;;;;5034707;28;20025;-61
2021/06/13 11:57:13;;;;;;;4.60;1.90;;;717.10;870.40;;;;;;5034615;28;20428;-61
2021/06/13 11:59:47;;;;;;;6.05;1.60;;;717.00;870.40;;;;;;5034547;28;20037;-61
2021/06/13 12:02:17;;;;;;;4.90;1.93;;;717.20;844.80;;;;;;5042629;28;20060;-60
2021/06/13 12:04:45;;;;;;;5.70;1.92;;;717.20;793.60;;;;;;5076594;28;20067;-61
2021/06/13 12:07:13;;;;;;;6.22;2.08;;;717.30;819.20;;;;;;5076670;28;20120;-60
2021/06/13 12:09:39;;;;;;;4.22;1.58;;;717.30;844.80;;;;;;5076645;28;20020;-60
2021/06/13 12:12:07;;;;;;;4.85;1.58;;;717.30;819.20;;;;;;5076647;28;20032;-60
2021/06/13 12:14:40;;;;;;;2.83;1.50;;;717.00;819.20;;;;;;5076494;28;20020;-60
2021/06/13 12:17:23;;;;;;;4.82;1.40;;;717.10;793.60;;;;;;5076383;28;20441;-60
2021/06/13 12:19:57;;;;;;;6.13;1.60;;;717.10;819.20;;;;;;5076530;28;20024;-61
2021/06/13 12:22:41;;;;;;;7.30;1.70;;;717.00;844.80;;;;;;5076234;28;20025;-61
2021/06/13 12:27:38;;;;;;;5.10;1.90;;;717.10;819.20;;;;;;5075083;28;20032;-61
2021/06/13 12:30:19;;;;;;;4.40;1.33;;;716.80;870.40;;;;;;5074633;28;20111;-61
2021/06/13 12:33:06;;;;;;;3.33;1.67;;;717.00;870.40;;;;;;5072266;28;20039;-61
2021/06/13 12:35:39;;;;;;;4.40;2.05;;;717.10;844.80;;;;;;5073398;28;20032;-60